Time;durP1;ratioP1;P1;durP2;ratioP2;P2;SDS_P1;SDS_P2;PMS_P1;PMS_P2;Temp;Humidity;BMP_temperature;BMP_pressure;BME280_temperature;BME280_humidity;BME280_pressure;Samples;Min_cycle;Max_cycle;Signal;HPM_P1;HPM_P2
2021/12/01 00:01:41;;;;;;;87.60;24.55;;;;;;;;;;5052746;28;20039;-91
2021/12/01 00:04:07;;;;;;;72.85;24.63;;;;;;;;;;5057357;28;20389;-92
2021/12/01 00:06:34;;;;;;;71.68;24.95;;;;;;;;;;5046622;28;20284;-92
2021/12/01 00:09:00;;;;;;;71.78;23.10;;;;;;;;;;5075562;28;20059;-96
2021/12/01 00:11:26;;;;;;;74.25;24.60;;;;;;;;;;5066211;28;20060;-94
2021/12/01 00:13:52;;;;;;;79.00;25.88;;;;;;;;;;5063766;28;20036;-94
2021/12/01 00:16:18;;;;;;;77.47;27.63;;;;;;;;;;5062765;28;20517;-95
2021/12/01 00:18:44;;;;;;;87.70;29.25;;;;;;;;;;5063911;28;20506;-95
2021/12/01 00:21:11;;;;;;;89.85;29.88;;;;;;;;;;5056032;28;20048;-93
2021/12/01 00:23:37;;;;;;;96.47;32.67;;;;;;;;;;5062335;28;20044;-93
2021/12/01 00:26:04;;;;;;;96.15;34.90;;;;;;;;;;5046089;28;20036;-94
2021/12/01 00:28:30;;;;;;;122.32;36.13;;;;;;;;;;5061307;28;20403;-92
2021/12/01 00:30:57;;;;;;;119.82;39.83;;;;;;;;;;5053119;28;20027;-91
2021/12/01 00:33:23;;;;;;;104.07;36.83;;;;;;;;;;5064975;28;20035;-92
2021/12/01 00:35:53;;;;;;;122.82;42.72;;;;;;;;;;5058407;28;20403;-91
2021/12/01 00:38:20;;;;;;;118.00;43.22;;;;;;;;;;5056280;28;20075;-89
2021/12/01 00:40:46;;;;;;;128.30;44.33;;;;;;;;;;5058317;28;20112;-89
2021/12/01 00:43:17;;;;;;;144.57;46.85;;;;;;;;;;5055857;28;20382;-92
2021/12/01 00:45:54;;;;;;;121.32;44.60;;;;;;;;;;5056363;28;20074;-88
2021/12/01 00:48:20;;;;;;;122.85;45.10;;;;;;;;;;5065547;28;20496;-89
2021/12/01 00:50:47;;;;;;;122.70;45.95;;;;;;;;;;5049012;28;20032;-89
2021/12/01 00:53:13;;;;;;;120.88;45.85;;;;;;;;;;5071687;28;20388;-89
2021/12/01 00:55:42;;;;;;;125.13;44.33;;;;;;;;;;5052159;28;20119;-88
2021/12/01 00:58:11;;;;;;;125.97;45.78;;;;;;;;;;5064108;28;20052;-89
2021/12/01 01:00:37;;;;;;;124.28;45.65;;;;;;;;;;5063533;28;20145;-89
2021/12/01 01:03:03;;;;;;;124.85;45.30;;;;;;;;;;5055524;28;20499;-91
2021/12/01 01:05:29;;;;;;;114.95;45.28;;;;;;;;;;5049269;28;20048;-90
2021/12/01 01:07:55;;;;;;;102.35;41.92;;;;;;;;;;5044654;28;20043;-87
2021/12/01 01:18:34;;;;;;;87.20;37.47;;;;;;;;;;5071027;28;20043;-86
2021/12/01 01:21:01;;;;;;;83.13;36.95;;;;;;;;;;5054848;28;20048;-88
2021/12/01 01:23:29;;;;;;;91.65;37.78;;;;;;;;;;5046855;28;20040;-88
2021/12/01 01:25:55;;;;;;;84.53;37.65;;;;;;;;;;5036104;28;20086;-87
2021/12/01 01:28:21;;;;;;;86.30;37.08;;;;;;;;;;5054873;28;20464;-85
2021/12/01 01:30:48;;;;;;;70.93;35.08;;;;;;;;;;5053956;28;20047;-87
2021/12/01 01:33:13;;;;;;;65.30;31.73;;;;;;;;;;5063421;28;20044;-86
2021/12/01 01:35:40;;;;;;;73.95;34.20;;;;;;;;;;5051606;28;20044;-87
2021/12/01 01:38:06;;;;;;;70.60;31.90;;;;;;;;;;5074863;28;20041;-86
2021/12/01 01:40:32;;;;;;;71.05;33.05;;;;;;;;;;5088584;28;20063;-88
2021/12/01 01:42:58;;;;;;;60.45;28.05;;;;;;;;;;5050798;28;20071;-85
2021/12/01 01:45:24;;;;;;;50.92;24.20;;;;;;;;;;5055070;28;20435;-87
2021/12/01 01:47:59;;;;;;;60.30;28.55;;;;;;;;;;5070830;28;20040;-88
2021/12/01 01:50:35;;;;;;;52.10;25.92;;;;;;;;;;5041077;28;20040;-87
2021/12/01 01:53:01;;;;;;;41.15;20.52;;;;;;;;;;5068155;28;20048;-85
2021/12/01 01:55:27;;;;;;;38.40;21.02;;;;;;;;;;5054300;28;20552;-85
2021/12/01 01:57:53;;;;;;;45.20;19.88;;;;;;;;;;5060825;28;20041;-87
2021/12/01 02:00:19;;;;;;;34.47;18.70;;;;;;;;;;5053390;28;20495;-89
2021/12/01 02:02:46;;;;;;;24.98;13.05;;;;;;;;;;5068807;28;20036;-85
2021/12/01 02:05:12;;;;;;;23.02;9.98;;;;;;;;;;5066983;28;20040;-86
2021/12/01 02:07:38;;;;;;;17.25;8.05;;;;;;;;;;5066591;28;20461;-87
2021/12/01 02:10:05;;;;;;;15.52;7.85;;;;;;;;;;5050980;28;20476;-86
2021/12/01 02:12:31;;;;;;;14.90;8.13;;;;;;;;;;5052852;28;20196;-85
2021/12/01 02:14:57;;;;;;;21.08;10.93;;;;;;;;;;5053287;28;20529;-85
2021/12/01 02:17:23;;;;;;;21.98;11.50;;;;;;;;;;5053908;28;20040;-86
2021/12/01 02:19:52;;;;;;;22.75;12.50;;;;;;;;;;5067456;28;20040;-86
2021/12/01 02:22:18;;;;;;;23.17;12.77;;;;;;;;;;5065838;28;20040;-85
2021/12/01 02:24:47;;;;;;;24.65;13.57;;;;;;;;;;5054169;28;20038;-87
2021/12/01 02:27:14;;;;;;;26.27;13.60;;;;;;;;;;5070721;28;20039;-87
2021/12/01 02:29:40;;;;;;;22.27;12.57;;;;;;;;;;5052587;28;20555;-89
2021/12/01 02:32:06;;;;;;;23.23;12.63;;;;;;;;;;5050140;28;20036;-87
2021/12/01 02:34:39;;;;;;;28.60;12.93;;;;;;;;;;5065249;28;20081;-89
2021/12/01 02:37:06;;;;;;;18.17;9.07;;;;;;;;;;5055472;28;20542;-88
2021/12/01 02:39:32;;;;;;;19.98;9.70;;;;;;;;;;5064954;28;20095;-91
2021/12/01 02:41:59;;;;;;;14.95;7.95;;;;;;;;;;5051827;28;20041;-91
2021/12/01 02:44:26;;;;;;;17.50;7.97;;;;;;;;;;5054979;28;20040;-92
2021/12/01 02:46:52;;;;;;;16.60;8.35;;;;;;;;;;5056077;28;20051;-91
2021/12/01 02:49:19;;;;;;;15.88;6.65;;;;;;;;;;5071575;28;20051;-92
2021/12/01 02:51:48;;;;;;;15.65;6.93;;;;;;;;;;5056464;28;20499;-93
2021/12/01 02:54:14;;;;;;;15.88;6.55;;;;;;;;;;5059182;28;20043;-93
2021/12/01 02:56:45;;;;;;;12.93;5.63;;;;;;;;;;5058429;28;20414;-88
2021/12/01 02:59:11;;;;;;;11.32;5.03;;;;;;;;;;5058207;28;20040;-92
2021/12/01 03:01:37;;;;;;;12.65;5.18;;;;;;;;;;5058221;28;20032;-89
2021/12/01 03:04:04;;;;;;;10.60;4.78;;;;;;;;;;5059946;28;20046;-95
2021/12/01 03:06:33;;;;;;;13.10;4.45;;;;;;;;;;5078432;28;20082;-94
2021/12/01 03:09:00;;;;;;;9.48;3.90;;;;;;;;;;5060476;28;20510;-91
2021/12/01 03:11:26;;;;;;;8.20;3.78;;;;;;;;;;5078203;28;20079;-95
2021/12/01 03:13:54;;;;;;;11.95;3.88;;;;;;;;;;5059046;28;20040;-92
2021/12/01 03:16:20;;;;;;;8.98;3.92;;;;;;;;;;5059557;28;20044;-93
2021/12/01 03:18:46;;;;;;;10.05;3.85;;;;;;;;;;5059237;28;20054;-93
2021/12/01 03:21:15;;;;;;;13.10;5.10;;;;;;;;;;5060691;28;20123;-91
2021/12/01 03:23:41;;;;;;;11.25;4.70;;;;;;;;;;5060155;28;20495;-95
2021/12/01 03:26:08;;;;;;;9.15;4.40;;;;;;;;;;5054823;28;20043;-93
2021/12/01 03:28:34;;;;;;;14.20;5.00;;;;;;;;;;5063378;28;20663;-94
2021/12/01 03:31:00;;;;;;;9.63;4.30;;;;;;;;;;5065582;28;20391;-93
2021/12/01 03:33:28;;;;;;;10.00;4.32;;;;;;;;;;5054686;28;20105;-91
2021/12/01 03:35:57;;;;;;;8.13;3.30;;;;;;;;;;5062035;28;20038;-88
2021/12/01 03:38:26;;;;;;;8.70;3.53;;;;;;;;;;5079503;28;20036;-93
2021/12/01 03:40:52;;;;;;;7.50;3.58;;;;;;;;;;5066002;28;20083;-92
2021/12/01 03:43:19;;;;;;;7.05;3.10;;;;;;;;;;5062363;28;20047;-94
2021/12/01 03:45:45;;;;;;;8.23;2.80;;;;;;;;;;5061281;28;20036;-93
2021/12/01 03:48:11;;;;;;;10.45;3.38;;;;;;;;;;5078720;28;20036;-95
2021/12/01 03:50:38;;;;;;;9.98;2.90;;;;;;;;;;5065579;28;20144;-94
2021/12/01 03:53:05;;;;;;;8.63;2.75;;;;;;;;;;5063928;28;20043;-93
2021/12/01 03:55:31;;;;;;;10.25;3.50;;;;;;;;;;5048832;28;20402;-93
2021/12/01 03:57:57;;;;;;;10.32;3.70;;;;;;;;;;5061690;28;20085;-92
2021/12/01 04:00:23;;;;;;;10.57;4.32;;;;;;;;;;5063799;28;20051;-94
2021/12/01 04:02:49;;;;;;;12.23;4.03;;;;;;;;;;5077581;28;20384;-94
2021/12/01 04:05:16;;;;;;;11.30;4.63;;;;;;;;;;5058314;28;20040;-91
2021/12/01 04:07:43;;;;;;;13.32;4.63;;;;;;;;;;5063022;28;20036;-89
2021/12/01 04:10:12;;;;;;;13.10;5.53;;;;;;;;;;5056303;28;20039;-95
2021/12/01 04:12:39;;;;;;;16.00;5.22;;;;;;;;;;5063885;28;20131;-95
2021/12/01 04:15:05;;;;;;;16.40;5.05;;;;;;;;;;5063437;28;20036;-91
2021/12/01 04:17:31;;;;;;;16.20;5.05;;;;;;;;;;5051030;28;20041;-92
2021/12/01 04:19:57;;;;;;;17.67;5.63;;;;;;;;;;5057598;28;20127;-94
2021/12/01 04:22:23;;;;;;;18.08;6.00;;;;;;;;;;5046647;28;20070;-93
2021/12/01 04:24:49;;;;;;;17.05;6.03;;;;;;;;;;5054640;28;20040;-94
2021/12/01 04:27:15;;;;;;;12.75;5.60;;;;;;;;;;5057517;28;20086;-94
2021/12/01 04:29:41;;;;;;;13.73;5.38;;;;;;;;;;5058372;28;20032;-91
2021/12/01 04:32:08;;;;;;;12.48;5.30;;;;;;;;;;5051450;28;20120;-90
2021/12/01 04:34:35;;;;;;;12.90;4.72;;;;;;;;;;5061625;28;20067;-92
2021/12/01 04:37:01;;;;;;;11.50;4.97;;;;;;;;;;5062780;28;20072;-91
2021/12/01 04:39:27;;;;;;;13.63;5.05;;;;;;;;;;5062490;28;20466;-91
2021/12/01 04:42:03;;;;;;;12.52;5.28;;;;;;;;;;5059548;28;20044;-93
2021/12/01 04:44:30;;;;;;;9.73;4.85;;;;;;;;;;5054489;28;20408;-95
2021/12/01 04:47:00;;;;;;;11.13;4.90;;;;;;;;;;5068395;28;20097;-93
2021/12/01 04:49:26;;;;;;;13.60;4.95;;;;;;;;;;5059758;28;20040;-91
2021/12/01 04:51:55;;;;;;;10.68;5.10;;;;;;;;;;5061962;28;20123;-91
2021/12/01 04:54:22;;;;;;;10.77;5.15;;;;;;;;;;5042707;28;20549;-94
2021/12/01 04:56:52;;;;;;;13.52;6.00;;;;;;;;;;5044464;28;20036;-94
2021/12/01 04:59:19;;;;;;;11.35;5.43;;;;;;;;;;5058738;28;20048;-93
2021/12/01 05:01:45;;;;;;;9.50;4.80;;;;;;;;;;5045217;28;20101;-95
2021/12/01 05:04:11;;;;;;;10.05;4.97;;;;;;;;;;5068126;28;20040;-89
2021/12/01 05:06:41;;;;;;;11.00;5.03;;;;;;;;;;5041079;28;20041;-91
2021/12/01 05:09:07;;;;;;;8.80;4.13;;;;;;;;;;5076956;28;20123;-93
2021/12/01 05:11:34;;;;;;;9.48;4.22;;;;;;;;;;5058210;28;20058;-92
2021/12/01 05:14:00;;;;;;;8.20;3.88;;;;;;;;;;5061572;28;20545;-95
2021/12/01 05:16:26;;;;;;;7.53;3.50;;;;;;;;;;5048298;28;20041;-90
2021/12/01 05:18:52;;;;;;;7.88;3.22;;;;;;;;;;5062567;28;20040;-92
2021/12/01 05:21:19;;;;;;;8.60;3.22;;;;;;;;;;5062038;28;20044;-90
2021/12/01 05:23:45;;;;;;;7.22;2.83;;;;;;;;;;5060307;28;20094;-94
2021/12/01 05:26:11;;;;;;;6.70;2.60;;;;;;;;;;5062366;28;20068;-90
2021/12/01 05:28:39;;;;;;;7.20;2.70;;;;;;;;;;5077413;28;20061;-91
2021/12/01 05:31:05;;;;;;;4.70;2.17;;;;;;;;;;5057885;28;20036;-93
2021/12/01 05:33:32;;;;;;;6.30;2.10;;;;;;;;;;5057644;28;20144;-94
2021/12/01 05:35:58;;;;;;;5.22;2.50;;;;;;;;;;5059438;28;20516;-92
2021/12/01 05:38:25;;;;;;;6.55;2.83;;;;;;;;;;5062857;28;20063;-91
2021/12/01 05:40:51;;;;;;;5.43;2.45;;;;;;;;;;5058987;28;20056;-91
2021/12/01 05:43:18;;;;;;;5.55;2.75;;;;;;;;;;5073446;28;20040;-89
2021/12/01 05:45:45;;;;;;;6.60;2.92;;;;;;;;;;5060252;28;20040;-88
2021/12/01 05:48:11;;;;;;;6.00;2.75;;;;;;;;;;5045316;28;20032;-90
2021/12/01 05:50:37;;;;;;;6.70;3.30;;;;;;;;;;5058159;28;20042;-89
2021/12/01 05:53:04;;;;;;;6.13;2.80;;;;;;;;;;5049473;28;20499;-89
2021/12/01 05:55:30;;;;;;;6.97;3.53;;;;;;;;;;5044401;28;20037;-89
2021/12/01 05:57:56;;;;;;;8.20;3.72;;;;;;;;;;5059067;28;20071;-92
2021/12/01 06:00:22;;;;;;;8.50;4.10;;;;;;;;;;5059330;28;20044;-92
2021/12/01 06:02:52;;;;;;;8.07;3.85;;;;;;;;;;5059006;28;20047;-91
2021/12/01 06:05:19;;;;;;;8.88;4.30;;;;;;;;;;5058145;28;20065;-93
2021/12/01 06:07:45;;;;;;;8.90;4.72;;;;;;;;;;5058131;28;20039;-90
2021/12/01 06:10:11;;;;;;;10.98;4.43;;;;;;;;;;5057759;28;20396;-90
2021/12/01 06:12:39;;;;;;;7.55;3.88;;;;;;;;;;5063181;28;20041;-90
2021/12/01 06:15:07;;;;;;;7.40;4.03;;;;;;;;;;5056748;28;20056;-88
2021/12/01 06:17:34;;;;;;;8.75;4.75;;;;;;;;;;5044850;28;20117;-88
2021/12/01 06:20:00;;;;;;;7.85;4.22;;;;;;;;;;5075942;28;20047;-89
2021/12/01 06:22:26;;;;;;;8.02;4.47;;;;;;;;;;5046795;28;20085;-93
2021/12/01 06:24:53;;;;;;;8.85;4.82;;;;;;;;;;5057692;28;20076;-90
2021/12/01 06:27:19;;;;;;;8.77;4.22;;;;;;;;;;5073848;28;20082;-91
2021/12/01 06:29:45;;;;;;;7.40;3.92;;;;;;;;;;5053025;28;20565;-89
2021/12/01 06:32:12;;;;;;;6.80;3.40;;;;;;;;;;5067603;28;20044;-87
2021/12/01 06:34:37;;;;;;;7.20;3.83;;;;;;;;;;5071770;28;20040;-89
2021/12/01 06:37:04;;;;;;;7.13;3.38;;;;;;;;;;5057212;28;20097;-90
2021/12/01 06:39:30;;;;;;;6.93;3.22;;;;;;;;;;5055538;28;20109;-91
2021/12/01 06:41:56;;;;;;;5.72;2.78;;;;;;;;;;5055151;28;20040;-92
2021/12/01 06:44:24;;;;;;;6.57;3.00;;;;;;;;;;5054270;28;20551;-89
2021/12/01 06:46:50;;;;;;;5.25;2.60;;;;;;;;;;5062721;28;20043;-90
2021/12/01 06:49:16;;;;;;;7.55;2.80;;;;;;;;;;5068745;28;20067;-89
2021/12/01 06:51:42;;;;;;;6.60;2.85;;;;;;;;;;5054887;28;20028;-89
2021/12/01 06:54:08;;;;;;;6.20;2.75;;;;;;;;;;5065166;28;20119;-90
2021/12/01 06:56:34;;;;;;;5.57;2.80;;;;;;;;;;5056782;28;20081;-90
2021/12/01 06:59:00;;;;;;;5.20;2.45;;;;;;;;;;5056912;28;20518;-89
2021/12/01 07:01:26;;;;;;;5.35;2.28;;;;;;;;;;5061844;28;20040;-93
2021/12/01 07:03:52;;;;;;;5.03;2.03;;;;;;;;;;5066143;28;20049;-92
2021/12/01 07:06:18;;;;;;;5.10;2.22;;;;;;;;;;5050468;28;20089;-92
2021/12/01 07:08:44;;;;;;;5.68;2.50;;;;;;;;;;5050589;28;20037;-90
2021/12/01 07:11:10;;;;;;;5.55;2.38;;;;;;;;;;5056883;28;20036;-90
2021/12/01 07:13:37;;;;;;;5.88;2.72;;;;;;;;;;5057305;28;20044;-88
2021/12/01 07:16:03;;;;;;;5.93;2.70;;;;;;;;;;5056776;28;20036;-89
2021/12/01 07:18:29;;;;;;;5.70;2.33;;;;;;;;;;5056772;28;20550;-91
2021/12/01 07:20:55;;;;;;;5.05;2.47;;;;;;;;;;5056826;28;20036;-90
2021/12/01 07:23:22;;;;;;;5.68;2.50;;;;;;;;;;5057237;28;20051;-86
2021/12/01 07:25:48;;;;;;;4.47;2.22;;;;;;;;;;5057964;28;20035;-91
2021/12/01 07:28:14;;;;;;;4.75;2.20;;;;;;;;;;5067133;28;20047;-87
2021/12/01 07:30:40;;;;;;;4.22;2.03;;;;;;;;;;5078988;28;20392;-88
2021/12/01 07:33:07;;;;;;;5.40;2.60;;;;;;;;;;5073140;28;20052;-89
2021/12/01 07:35:33;;;;;;;5.75;2.65;;;;;;;;;;5065102;28;20048;-90
2021/12/01 07:37:59;;;;;;;5.88;2.47;;;;;;;;;;5055477;28;20076;-89
2021/12/01 07:40:26;;;;;;;5.20;2.80;;;;;;;;;;5072270;28;20056;-90
2021/12/01 07:42:52;;;;;;;5.93;2.85;;;;;;;;;;5043530;28;20115;-90
2021/12/01 07:45:18;;;;;;;5.72;2.60;;;;;;;;;;5061680;28;20036;-89
2021/12/01 07:47:44;;;;;;;8.45;3.50;;;;;;;;;;5054953;28;20041;-89
2021/12/01 07:50:10;;;;;;;7.82;3.47;;;;;;;;;;5058433;28;20086;-90
2021/12/01 07:52:38;;;;;;;8.27;4.57;;;;;;;;;;5057840;28;20047;-88
2021/12/01 07:55:05;;;;;;;10.70;4.70;;;;;;;;;;5076362;28;20044;-90
2021/12/01 07:57:31;;;;;;;8.48;4.00;;;;;;;;;;5057521;28;20410;-93
2021/12/01 07:59:57;;;;;;;6.75;3.90;;;;;;;;;;5052554;28;20036;-91
2021/12/01 08:02:23;;;;;;;6.72;3.47;;;;;;;;;;5056703;28;20119;-93
2021/12/01 08:04:49;;;;;;;8.23;4.22;;;;;;;;;;5071466;28;20479;-92
2021/12/01 08:07:15;;;;;;;8.60;3.88;;;;;;;;;;5056447;28;20040;-89
2021/12/01 08:09:41;;;;;;;7.82;4.30;;;;;;;;;;5076837;28;20046;-87
2021/12/01 08:12:10;;;;;;;8.10;4.35;;;;;;;;;;5061263;28;20050;-91
2021/12/01 08:14:37;;;;;;;9.90;5.38;;;;;;;;;;5062475;28;20556;-93
2021/12/01 08:17:03;;;;;;;10.48;6.43;;;;;;;;;;5060632;28;20036;-91
2021/12/01 08:19:28;;;;;;;12.63;6.32;;;;;;;;;;5060968;28;20803;-91
2021/12/01 08:21:56;;;;;;;11.73;6.72;;;;;;;;;;5084223;28;20081;-91
2021/12/01 08:24:24;;;;;;;11.43;6.43;;;;;;;;;;5051017;28;20468;-89
2021/12/01 08:26:52;;;;;;;11.60;6.68;;;;;;;;;;5080170;28;20035;-89
2021/12/01 08:29:19;;;;;;;14.82;7.30;;;;;;;;;;5058904;28;20761;-92
2021/12/01 08:31:46;;;;;;;15.32;7.30;;;;;;;;;;5061299;28;20403;-90
2021/12/01 08:34:13;;;;;;;11.23;6.45;;;;;;;;;;5080788;28;20047;-92
2021/12/01 08:36:39;;;;;;;11.82;6.65;;;;;;;;;;5060428;28;20123;-87
2021/12/01 08:39:05;;;;;;;13.30;6.55;;;;;;;;;;5062377;28;20047;-89
2021/12/01 08:41:31;;;;;;;14.15;6.50;;;;;;;;;;5063197;28;20039;-92
2021/12/01 08:43:57;;;;;;;13.00;5.90;;;;;;;;;;5073725;28;20040;-88
2021/12/01 08:46:23;;;;;;;12.38;6.72;;;;;;;;;;5054824;28;20036;-89
2021/12/01 08:48:49;;;;;;;10.57;5.57;;;;;;;;;;5086299;28;20121;-88
2021/12/01 08:51:15;;;;;;;10.60;5.45;;;;;;;;;;5075753;28;20402;-89
2021/12/01 08:53:42;;;;;;;12.45;5.07;;;;;;;;;;5064359;28;20040;-88
2021/12/01 08:56:09;;;;;;;9.63;5.00;;;;;;;;;;5061227;28;20040;-93
2021/12/01 08:58:35;;;;;;;8.68;4.03;;;;;;;;;;5061637;28;20043;-88
2021/12/01 09:01:02;;;;;;;11.25;3.47;;;;;;;;;;5062327;28;20036;-91
2021/12/01 09:03:28;;;;;;;10.32;3.53;;;;;;;;;;5064460;28;20044;-92
2021/12/01 09:05:54;;;;;;;12.65;3.90;;;;;;;;;;5065311;28;20085;-90
2021/12/01 09:08:22;;;;;;;10.95;3.55;;;;;;;;;;5057383;28;20032;-90
2021/12/01 09:10:52;;;;;;;9.77;2.83;;;;;;;;;;5056913;28;20031;-93
2021/12/01 09:13:19;;;;;;;11.18;3.22;;;;;;;;;;5072068;28;20059;-90
2021/12/01 09:15:45;;;;;;;14.25;3.28;;;;;;;;;;5062447;28;20065;-87
2021/12/01 09:18:11;;;;;;;12.45;3.47;;;;;;;;;;5076652;28;20059;-89
2021/12/01 09:20:37;;;;;;;23.33;5.65;;;;;;;;;;5072483;28;20040;-88
2021/12/01 09:23:03;;;;;;;11.55;3.20;;;;;;;;;;5056905;28;20128;-90
2021/12/01 09:25:30;;;;;;;11.65;3.33;;;;;;;;;;5056273;28;20519;-93
2021/12/01 09:27:57;;;;;;;12.32;2.08;;;;;;;;;;5058432;28;20042;-91
2021/12/01 09:30:23;;;;;;;9.02;2.00;;;;;;;;;;5057501;28;20495;-87
2021/12/01 09:32:49;;;;;;;10.63;2.38;;;;;;;;;;5050058;28;20047;-89
2021/12/01 09:35:15;;;;;;;10.10;2.08;;;;;;;;;;5058111;28;20040;-89
2021/12/01 09:37:42;;;;;;;9.85;1.75;;;;;;;;;;5046225;28;20425;-92
2021/12/01 09:40:13;;;;;;;9.68;2.20;;;;;;;;;;5063844;28;20138;-90
2021/12/01 09:42:41;;;;;;;7.20;1.92;;;;;;;;;;5069251;28;20040;-91
2021/12/01 09:45:08;;;;;;;13.38;2.20;;;;;;;;;;5073287;28;20036;-89
2021/12/01 09:47:34;;;;;;;8.80;1.90;;;;;;;;;;5057794;28;20039;-89
2021/12/01 09:50:00;;;;;;;9.60;2.38;;;;;;;;;;5056988;28;20518;-92
2021/12/01 09:52:26;;;;;;;9.15;1.77;;;;;;;;;;5060066;28;20033;-89
2021/12/01 09:54:52;;;;;;;9.05;1.98;;;;;;;;;;5075051;28;20039;-87
2021/12/01 09:57:18;;;;;;;12.38;1.75;;;;;;;;;;5047924;28;20079;-90
2021/12/01 09:59:47;;;;;;;12.35;3.50;;;;;;;;;;5056408;28;20522;-89
2021/12/01 10:02:13;;;;;;;9.45;1.75;;;;;;;;;;5056657;28;20054;-90
2021/12/01 10:04:39;;;;;;;10.18;1.95;;;;;;;;;;5058104;28;20039;-89
2021/12/01 10:07:12;;;;;;;12.88;1.65;;;;;;;;;;5054848;28;20036;-89
2021/12/01 10:09:45;;;;;;;9.35;1.70;;;;;;;;;;5049576;28;20070;-92
2021/12/01 10:12:11;;;;;;;11.13;1.73;;;;;;;;;;5042323;28;20043;-91
2021/12/01 10:14:38;;;;;;;11.68;1.98;;;;;;;;;;5058120;28;20391;-88
2021/12/01 10:17:04;;;;;;;11.93;2.10;;;;;;;;;;5073093;28;20119;-90
2021/12/01 10:19:30;;;;;;;12.43;2.00;;;;;;;;;;5056753;28;20398;-90
2021/12/01 10:21:57;;;;;;;9.27;1.63;;;;;;;;;;5072801;28;20415;-89
2021/12/01 10:24:24;;;;;;;17.17;2.53;;;;;;;;;;5063651;28;20044;-90
2021/12/01 10:26:53;;;;;;;11.40;1.85;;;;;;;;;;5056530;28;20441;-93
2021/12/01 10:29:23;;;;;;;10.82;1.90;;;;;;;;;;5055144;28;20055;-90
2021/12/01 10:31:54;;;;;;;10.40;2.13;;;;;;;;;;5048901;28;20047;-91
2021/12/01 10:34:26;;;;;;;11.73;3.30;;;;;;;;;;5066581;28;20055;-90
2021/12/01 10:37:10;;;;;;;9.45;1.92;;;;;;;;;;5054718;28;20069;-91
2021/12/01 10:39:37;;;;;;;12.15;2.50;;;;;;;;;;5052158;28;20052;-89
2021/12/01 10:42:11;;;;;;;10.35;2.63;;;;;;;;;;5054758;28;20119;-90
2021/12/01 10:44:37;;;;;;;9.98;2.50;;;;;;;;;;5089844;28;20083;-88
2021/12/01 10:47:08;;;;;;;14.27;2.92;;;;;;;;;;5069629;28;20039;-89
2021/12/01 10:49:40;;;;;;;12.70;2.13;;;;;;;;;;5067214;28;20037;-88
2021/12/01 10:52:27;;;;;;;12.20;2.15;;;;;;;;;;5048212;28;20036;-89
2021/12/01 10:55:05;;;;;;;14.70;2.40;;;;;;;;;;5051327;28;20403;-89
2021/12/01 10:57:32;;;;;;;11.65;2.47;;;;;;;;;;5070734;28;20715;-88
2021/12/01 10:59:58;;;;;;;10.48;1.98;;;;;;;;;;5069118;28;20343;-88
2021/12/01 11:02:34;;;;;;;16.08;2.65;;;;;;;;;;5050057;28;20563;-90
2021/12/01 11:05:00;;;;;;;14.10;2.35;;;;;;;;;;5053339;28;20507;-90
2021/12/01 11:07:31;;;;;;;15.77;2.63;;;;;;;;;;5068189;28;20076;-89
2021/12/01 11:10:10;;;;;;;11.15;2.40;;;;;;;;;;5064182;28;20037;-91
2021/12/01 11:12:36;;;;;;;9.07;1.92;;;;;;;;;;5066002;28;20111;-90
2021/12/01 11:15:21;;;;;;;11.48;1.90;;;;;;;;;;5061277;28;20044;-89
2021/12/01 11:17:49;;;;;;;13.18;2.50;;;;;;;;;;5049047;28;20555;-91
2021/12/01 11:20:33;;;;;;;9.82;2.03;;;;;;;;;;5069753;28;20036;-90
2021/12/01 11:23:15;;;;;;;10.93;1.73;;;;;;;;;;5067228;28;20385;-91
2021/12/01 11:25:41;;;;;;;9.85;2.42;;;;;;;;;;5068078;28;20456;-87
2021/12/01 11:28:08;;;;;;;7.75;1.95;;;;;;;;;;5051659;28;20398;-91
2021/12/01 11:30:37;;;;;;;15.68;2.80;;;;;;;;;;5051329;28;20047;-89
2021/12/01 14:34:53;;;;;;;9.95;2.33;;;;;;;;;;6173406;22;1215753;-87
2021/12/01 14:37:20;;;;;;;13.57;3.00;;;;;;;;;;6162443;23;20047;-85
2021/12/01 14:39:46;;;;;;;14.23;2.47;;;;;;;;;;6164207;23;20151;-90
2021/12/01 14:42:13;;;;;;;14.88;2.90;;;;;;;;;;6188439;23;20349;-84
2021/12/01 14:44:45;;;;;;;11.65;2.60;;;;;;;;;;6186532;23;20013;-87
2021/12/01 14:47:15;;;;;;;8.88;1.90;;;;;;;;;;6187090;23;20017;-86
2021/12/01 14:49:43;;;;;;;12.80;2.65;;;;;;;;;;6186442;23;20120;-87
2021/12/01 14:52:10;;;;;;;11.73;2.50;;;;;;;;;;6185815;23;20016;-84
2021/12/01 14:54:38;;;;;;;10.88;2.00;;;;;;;;;;6162375;23;20028;-87
2021/12/01 14:57:04;;;;;;;13.35;2.80;;;;;;;;;;6161782;23;20016;-87
2021/12/01 14:59:31;;;;;;;13.60;2.92;;;;;;;;;;6162112;23;20323;-86
2021/12/01 15:02:15;;;;;;;11.25;2.55;;;;;;;;;;6187339;23;20454;-85
2021/12/01 15:05:00;;;;;;;12.57;3.22;;;;;;;;;;6162046;23;20013;-85
2021/12/01 15:07:26;;;;;;;;;;;;;;;;;;6162871;23;20043;-86
2021/12/01 15:09:52;;;;;;;9.63;1.90;;;;;;;;;;6161103;23;19986;-86
2021/12/01 15:12:29;;;;;;;9.57;2.65;;;;;;;;;;6161248;23;20454;-83
2021/12/01 15:14:55;;;;;;;12.15;2.85;;;;;;;;;;6184755;23;20367;-87
2021/12/01 15:17:21;;;;;;;10.73;2.53;;;;;;;;;;6159142;23;20547;-87
2021/12/01 15:20:06;;;;;;;8.15;2.17;;;;;;;;;;6183462;23;20465;-85
2021/12/01 15:22:32;;;;;;;13.25;2.55;;;;;;;;;;6184544;23;20022;-84
2021/12/01 15:24:58;;;;;;;11.07;2.30;;;;;;;;;;6184010;23;20067;-85
2021/12/01 15:27:24;;;;;;;13.45;2.67;;;;;;;;;;6184372;23;20027;-86
2021/12/01 15:29:50;;;;;;;14.43;3.03;;;;;;;;;;6160935;23;20315;-86
2021/12/01 15:32:16;;;;;;;11.63;2.55;;;;;;;;;;6160039;23;20310;-86
2021/12/01 15:34:42;;;;;;;10.77;2.88;;;;;;;;;;6185221;23;20095;-87
2021/12/01 15:37:08;;;;;;;11.50;2.42;;;;;;;;;;6185901;23;20020;-83
2021/12/01 15:39:35;;;;;;;16.40;3.22;;;;;;;;;;6186438;23;20013;-83
2021/12/01 15:42:03;;;;;;;10.95;2.10;;;;;;;;;;6161033;23;20020;-91
2021/12/01 15:44:30;;;;;;;9.32;2.50;;;;;;;;;;6187016;23;20094;-83
2021/12/01 15:46:56;;;;;;;11.23;2.35;;;;;;;;;;6164149;23;20039;-85
2021/12/01 15:49:33;;;;;;;11.65;3.20;;;;;;;;;;6186594;23;20009;-86
2021/12/01 15:51:59;;;;;;;12.68;2.33;;;;;;;;;;6185687;23;20024;-84
2021/12/01 15:54:25;;;;;;;14.65;3.30;;;;;;;;;;6185968;23;20461;-87
2021/12/01 15:56:52;;;;;;;11.90;2.40;;;;;;;;;;6162273;23;20017;-82
2021/12/01 15:59:18;;;;;;;13.65;3.08;;;;;;;;;;6188826;23;20338;-84
2021/12/01 16:01:44;;;;;;;17.90;3.97;;;;;;;;;;6186797;23;20024;-85
2021/12/01 16:04:10;;;;;;;12.63;2.85;;;;;;;;;;6162164;23;20127;-85
2021/12/01 16:06:36;;;;;;;13.60;2.90;;;;;;;;;;6187578;23;20103;-86
2021/12/01 16:09:03;;;;;;;12.55;2.67;;;;;;;;;;6186488;23;20036;-89
2021/12/01 16:11:29;;;;;;;16.27;2.67;;;;;;;;;;6159239;23;20020;-85
2021/12/01 16:13:55;;;;;;;15.52;2.67;;;;;;;;;;6162021;23;20453;-88
2021/12/01 16:16:21;;;;;;;12.73;2.97;;;;;;;;;;6188175;23;20094;-86
2021/12/01 16:18:47;;;;;;;13.77;2.40;;;;;;;;;;6188510;23;20048;-86
2021/12/01 16:21:14;;;;;;;15.85;2.70;;;;;;;;;;6163170;23;20012;-85
2021/12/01 16:23:40;;;;;;;10.10;2.65;;;;;;;;;;6164623;23;20047;-83
2021/12/01 16:26:08;;;;;;;15.38;3.10;;;;;;;;;;6164239;23;20009;-84
2021/12/01 16:28:34;;;;;;;13.65;3.38;;;;;;;;;;6163356;23;20039;-87
2021/12/01 16:31:01;;;;;;;11.65;2.70;;;;;;;;;;6163858;23;20143;-83
2021/12/01 16:33:28;;;;;;;18.08;2.90;;;;;;;;;;6186746;23;20390;-83
2021/12/01 16:35:54;;;;;;;12.15;2.50;;;;;;;;;;6187450;23;20617;-83
2021/12/01 16:38:21;;;;;;;14.30;3.28;;;;;;;;;;6185732;23;20043;-85
2021/12/01 16:40:47;;;;;;;15.73;3.63;;;;;;;;;;6188983;23;20020;-84
2021/12/01 16:43:15;;;;;;;15.68;2.80;;;;;;;;;;6186854;23;20040;-85
2021/12/01 16:45:41;;;;;;;17.80;3.75;;;;;;;;;;6186381;23;20016;-84
2021/12/01 16:48:07;;;;;;;15.25;3.47;;;;;;;;;;6161700;23;20016;-88
2021/12/01 16:50:34;;;;;;;11.82;2.50;;;;;;;;;;6185134;23;20441;-84
2021/12/01 16:53:00;;;;;;;18.73;2.92;;;;;;;;;;6164001;23;20471;-84
2021/12/01 16:55:26;;;;;;;11.77;2.90;;;;;;;;;;6187051;23;20095;-84
2021/12/01 16:57:52;;;;;;;18.35;2.60;;;;;;;;;;6188336;23;20059;-87
2021/12/01 17:00:20;;;;;;;8.73;2.08;;;;;;;;;;6187433;23;20332;-86
2021/12/01 17:02:46;;;;;;;12.13;2.38;;;;;;;;;;6160883;23;20043;-82
2021/12/01 17:05:15;;;;;;;8.30;1.60;;;;;;;;;;6162262;23;20048;-85
2021/12/01 17:10:19;;;;;;;9.98;1.83;;;;;;;;;;6186907;23;20013;-84
2021/12/01 17:12:47;;;;;;;6.90;2.28;;;;;;;;;;6186418;23;20016;-85
2021/12/01 17:15:14;;;;;;;9.80;2.17;;;;;;;;;;6185626;23;20409;-81
2021/12/01 17:17:40;;;;;;;10.00;2.40;;;;;;;;;;6187318;23;20016;-85
2021/12/01 17:20:08;;;;;;;10.52;1.88;;;;;;;;;;6164297;23;20013;-90
2021/12/01 17:22:39;;;;;;;9.27;1.95;;;;;;;;;;6190542;23;20380;-85
2021/12/01 17:25:06;;;;;;;13.52;2.55;;;;;;;;;;6190618;23;20035;-84
2021/12/01 17:27:32;;;;;;;11.63;1.88;;;;;;;;;;6189392;23;20020;-86
2021/12/01 17:30:00;;;;;;;7.32;1.40;;;;;;;;;;6163306;23;20346;-84
2021/12/01 17:32:26;;;;;;;12.98;2.00;;;;;;;;;;6162766;23;20020;-84
2021/12/01 17:34:53;;;;;;;9.25;1.95;;;;;;;;;;6187051;23;20075;-81
2021/12/01 17:37:19;;;;;;;6.85;1.60;;;;;;;;;;6162339;23;20016;-81
2021/12/01 17:39:46;;;;;;;8.23;1.85;;;;;;;;;;6186255;23;20020;-83
2021/12/01 17:42:13;;;;;;;7.43;1.83;;;;;;;;;;6161255;23;20096;-84
2021/12/01 17:44:40;;;;;;;8.73;2.38;;;;;;;;;;6186787;23;20009;-83
2021/12/01 17:47:07;;;;;;;8.10;1.95;;;;;;;;;;6187101;23;20017;-85